Kocubej, Russia
Current Conditions -  °F | °C
As of 11:00 AM on Saturday 29 Nov 2014 (Local Time) from URML Reporting Station
Broken Clouds Broken Clouds  
Wind Chill: 40°   Ceiling: 2600
Heat Index: 43°   Visibility: 4mi
Dew Point: 39°   Wind: 4mph
Humidity: 87%   Direction: 60°ENE
Pressure: 30.39"   Gusts: NA
Location:  44.4°N, 46.55°E
Report Text: URML 290800Z 06002MPS 6000 BKN026 06/04 Q1029 NOSIG RMKQFE771/1029
Loading
Personal Weather Stations






























Interactive Weather Map New forecast layout! Learn more

10-Day Weather Forecast

Advertisements
Track Severe Weather on mobile